createdAt,value
2022-12-29T00:00:24.352Z,100124.59
2022-12-29T00:02:51.250Z,100115.91
2022-12-29T00:05:18.910Z,100108.34
2022-12-29T00:07:45.838Z,100100.69
2022-12-29T00:10:13.372Z,100093.75
2022-12-29T00:12:58.751Z,100089.44
2022-12-29T00:15:38.341Z,100086.97
2022-12-29T00:18:05.840Z,100092.25
2022-12-29T00:20:54.631Z,100096.63
2022-12-29T00:23:40.943Z,100084.38
2022-12-29T00:26:50.771Z,100076.59
2022-12-29T00:29:36.308Z,100069.38
2022-12-29T00:32:23.799Z,100078.16
2022-12-29T00:35:09.802Z,100079.00
2022-12-29T00:38:03.181Z,100066.69
2022-12-29T00:40:50.657Z,100054.53
2022-12-29T00:43:36.019Z,100059.81
2022-12-29T00:46:02.741Z,100062.28
2022-12-29T00:48:48.954Z,100057.97
2022-12-29T00:51:15.647Z,100057.19
2022-12-29T00:53:42.672Z,100066.03
2022-12-29T00:56:09.834Z,100054.84
2022-12-29T00:58:36.771Z,100047.00
2022-12-29T01:01:09.789Z,100040.00
2022-12-29T01:03:38.580Z,100048.88
2022-12-29T01:06:07.862Z,100038.38
2022-12-29T01:08:36.162Z,100033.16
2022-12-29T01:11:06.534Z,100040.06
2022-12-29T01:13:35.480Z,100039.06
2022-12-29T01:16:03.166Z,100049.38
2022-12-29T01:18:30.225Z,100039.72
2022-12-29T01:21:02.356Z,100026.47
2022-12-29T01:23:29.975Z,100039.38
2022-12-29T01:25:57.093Z,100039.31
2022-12-29T01:28:26.293Z,100028.81
2022-12-29T01:30:53.228Z,100026.94
2022-12-29T01:33:20.333Z,100021.50
2022-12-29T01:35:47.123Z,100012.72
2022-12-29T01:38:14.027Z,100024.81
2022-12-29T01:40:47.282Z,100014.44
2022-12-29T01:43:16.065Z,100023.88
2022-12-29T01:45:49.413Z,100014.53
2022-12-29T01:48:19.547Z,100002.19
2022-12-29T01:50:51.709Z,100018.53
2022-12-29T01:53:29.310Z,100017.41
2022-12-29T01:56:00.808Z,100012.97
2022-12-29T01:58:33.503Z,100007.72
2022-12-29T02:01:03.147Z,99986.03
2022-12-29T02:03:33.659Z,100001.78
2022-12-29T02:06:12.328Z,100020.81
2022-12-29T02:08:41.825Z,100012.25
2022-12-29T02:11:09.041Z,100016.69
2022-12-29T02:13:36.697Z,100016.75
2022-12-29T02:16:21.491Z,100012.25
2022-12-29T02:18:56.947Z,100006.75
2022-12-29T02:21:46.816Z,100005.06
2022-12-29T02:24:41.702Z,100001.44
2022-12-29T02:27:40.215Z,100001.44
2022-12-29T02:30:39.484Z,100006.66
2022-12-29T02:33:38.650Z,99987.03
2022-12-29T02:36:21.793Z,99988.13
2022-12-29T02:39:03.488Z,99987.50
2022-12-29T02:41:53.740Z,99987.59
2022-12-29T02:44:48.766Z,99977.09
2022-12-29T02:47:25.092Z,99971.91
2022-12-29T02:50:00.420Z,99973.72
2022-12-29T02:52:35.260Z,99977.13
2022-12-29T02:55:03.079Z,99971.56
2022-12-29T02:57:34.610Z,99979.28
2022-12-29T03:00:15.615Z,99971.34
2022-12-29T03:02:52.406Z,99964.47
2022-12-29T03:05:54.786Z,99973.28
2022-12-29T03:08:39.724Z,99965.41
2022-12-29T03:11:31.591Z,99953.19
2022-12-29T03:14:29.624Z,99954.88
2022-12-29T03:17:05.925Z,99968.97
2022-12-29T03:19:41.932Z,99955.22
2022-12-29T03:22:31.811Z,99946.97
2022-12-29T03:25:06.057Z,99939.97
2022-12-29T03:27:40.629Z,99941.81
2022-12-29T03:30:10.167Z,99952.19
2022-12-29T03:32:45.162Z,99945.28
2022-12-29T03:35:17.768Z,99941.00
2022-12-29T03:38:11.895Z,99936.47
2022-12-29T03:40:43.480Z,99936.59
2022-12-29T03:43:11.512Z,99932.69
2022-12-29T03:45:39.088Z,99942.59
2022-12-29T03:48:06.338Z,99939.22
2022-12-29T03:50:33.264Z,99936.59
2022-12-29T03:53:00.759Z,99927.88
2022-12-29T03:55:27.725Z,99913.91
2022-12-29T03:57:55.189Z,99916.56
2022-12-29T04:00:21.971Z,99912.09
2022-12-29T04:02:49.425Z,99894.06
2022-12-29T04:05:16.911Z,99903.53
2022-12-29T04:07:44.541Z,99900.16
2022-12-29T04:10:11.287Z,99892.13
2022-12-29T04:12:38.257Z,99891.34
2022-12-29T04:15:05.615Z,99881.94
2022-12-29T04:17:32.575Z,99880.09
2022-12-29T04:20:19.511Z,99878.28
2022-12-29T04:22:46.606Z,99895.56
2022-12-29T04:25:13.739Z,99879.00
2022-12-29T04:27:41.528Z,99884.31
2022-12-29T04:30:09.302Z,99886.75
2022-12-29T04:32:36.788Z,99880.47
2022-12-29T04:35:03.605Z,99878.53
2022-12-29T04:37:30.791Z,99873.03
2022-12-29T04:39:57.672Z,99893.88
2022-12-29T04:42:24.444Z,99874.66
2022-12-29T04:44:51.651Z,99883.31
2022-12-29T04:47:19.026Z,99879.03
2022-12-29T04:49:46.016Z,99872.59
2022-12-29T04:52:12.744Z,99894.59
2022-12-29T04:54:40.679Z,99891.88
2022-12-29T04:57:07.626Z,99895.41
2022-12-29T04:59:35.033Z,99888.28
2022-12-29T05:02:02.136Z,99895.41
2022-12-29T05:04:29.503Z,99905.00
2022-12-29T05:06:56.491Z,99911.19
2022-12-29T05:09:24.913Z,99890.44
2022-12-29T05:11:51.803Z,99920.97
2022-12-29T05:14:18.976Z,99915.59
2022-12-29T05:16:45.715Z,99928.41
2022-12-29T05:19:12.687Z,99939.72
2022-12-29T05:21:40.312Z,99940.50
2022-12-29T05:24:07.553Z,99942.50
2022-12-29T05:26:34.532Z,99952.00
2022-12-29T05:29:01.866Z,99935.44
2022-12-29T05:31:29.054Z,99945.88
2022-12-29T05:33:56.178Z,99952.28
2022-12-29T05:36:23.407Z,99949.41
2022-12-29T05:38:51.154Z,99947.03
2022-12-29T05:41:18.697Z,99957.41
2022-12-29T05:43:46.460Z,99963.88
2022-12-29T05:46:13.683Z,99953.69
2022-12-29T05:48:41.998Z,99989.47
2022-12-29T05:51:08.846Z,99962.44
2022-12-29T05:53:36.683Z,99982.75
2022-12-29T05:56:03.519Z,99975.81
2022-12-29T05:58:30.432Z,99980.47
2022-12-29T06:00:57.483Z,99993.66
2022-12-29T06:03:25.510Z,99986.78
2022-12-29T06:05:52.987Z,99982.44
2022-12-29T06:08:20.013Z,99987.66
2022-12-29T06:10:46.710Z,99995.00
2022-12-29T06:13:14.296Z,100003.84
2022-12-29T06:15:41.302Z,99991.81
2022-12-29T06:18:08.425Z,100005.66
2022-12-29T06:20:35.850Z,100017.13
2022-12-29T06:23:02.963Z,100017.06
2022-12-29T06:25:31.834Z,100024.97
2022-12-29T06:27:59.356Z,100022.44
2022-12-29T06:30:26.466Z,100033.75
2022-12-29T06:32:53.289Z,100027.66
2022-12-29T06:35:21.020Z,100027.50
2022-12-29T06:37:48.194Z,100035.34
2022-12-29T06:40:15.751Z,100036.19
2022-12-29T06:42:42.786Z,100032.66
2022-12-29T06:45:10.530Z,100033.41
2022-12-29T06:47:37.605Z,100024.81
2022-12-29T06:50:06.344Z,100035.09
2022-12-29T06:52:33.099Z,100038.56
2022-12-29T06:55:00.384Z,100034.91
2022-12-29T06:57:27.932Z,100032.44
2022-12-29T06:59:56.677Z,100030.56
2022-12-29T07:02:26.475Z,100027.94
2022-12-29T07:04:54.213Z,100041.88
2022-12-29T07:07:21.693Z,100028.00
2022-12-29T07:09:48.870Z,100041.06
2022-12-29T07:12:16.352Z,100044.34
2022-12-29T07:14:44.000Z,100059.13
2022-12-29T07:17:11.633Z,100051.22
2022-12-29T07:19:38.522Z,100054.59
2022-12-29T07:22:05.307Z,100063.34
2022-12-29T07:24:34.139Z,100065.97
2022-12-29T07:27:01.115Z,100058.41
2022-12-29T07:29:28.288Z,100057.41
2022-12-29T07:31:56.089Z,100071.31
2022-12-29T07:34:23.085Z,100059.16
2022-12-29T07:36:50.222Z,100081.66
2022-12-29T07:39:16.980Z,100076.50
2022-12-29T07:41:44.153Z,100074.72
2022-12-29T07:44:11.936Z,100080.03
2022-12-29T07:46:53.779Z,100087.03
2022-12-29T07:49:24.239Z,100090.38
2022-12-29T07:51:51.104Z,100098.00
2022-12-29T07:54:19.376Z,100086.72
2022-12-29T07:56:47.067Z,100092.03
2022-12-29T07:59:14.132Z,100105.97
2022-12-29T08:01:41.432Z,100095.72
2022-12-29T08:04:08.910Z,100106.22
2022-12-29T08:06:36.185Z,100102.78
2022-12-29T08:09:12.182Z,100111.53
2022-12-29T08:11:44.497Z,100116.75
2022-12-29T08:14:12.279Z,100106.09
2022-12-29T08:16:39.923Z,100113.16
2022-12-29T08:19:06.884Z,100115.84
2022-12-29T08:21:34.469Z,100122.03
2022-12-29T08:24:01.482Z,100120.19
2022-12-29T08:26:28.690Z,100118.53
2022-12-29T08:28:56.793Z,100128.97
2022-12-29T08:31:24.489Z,100130.75
2022-12-29T08:33:52.396Z,100131.59
2022-12-29T08:36:19.274Z,100134.25
2022-12-29T08:38:46.378Z,100131.50
2022-12-29T08:41:13.965Z,100130.75
2022-12-29T08:43:41.137Z,100137.66
2022-12-29T08:46:08.132Z,100144.78
2022-12-29T08:48:35.552Z,100138.59
2022-12-29T08:51:02.344Z,100139.50
2022-12-29T08:53:29.431Z,100148.25
2022-12-29T08:56:04.515Z,100148.22
2022-12-29T08:58:32.696Z,100147.47
2022-12-29T09:01:00.068Z,100143.06
2022-12-29T09:03:54.876Z,100141.28
2022-12-29T09:06:16.442Z,100160.59
2022-12-29T09:08:44.613Z,100156.38
2022-12-29T09:11:18.165Z,100162.44
2022-12-29T09:13:47.169Z,100159.91
2022-12-29T09:16:14.069Z,100151.19
2022-12-29T09:18:41.263Z,100157.22
2022-12-29T09:21:08.694Z,100164.00
2022-12-29T09:23:36.513Z,100151.81
2022-12-29T09:26:04.571Z,100160.78
2022-12-29T09:28:32.617Z,100169.38
2022-12-29T09:31:00.005Z,100167.75
2022-12-29T09:33:27.710Z,100168.50
2022-12-29T09:35:59.178Z,100161.53
2022-12-29T09:38:28.179Z,100171.16
2022-12-29T09:41:00.917Z,100174.66
2022-12-29T09:43:46.570Z,100162.19
2022-12-29T09:46:26.626Z,100177.25
2022-12-29T09:49:05.499Z,100190.13
2022-12-29T09:51:35.762Z,100179.47
2022-12-29T09:54:35.979Z,100172.56
2022-12-29T09:57:02.752Z,100168.22
2022-12-29T10:00:13.954Z,100176.06
2022-12-29T10:02:45.241Z,100174.31
2022-12-29T10:05:23.307Z,100175.13
2022-12-29T10:08:31.100Z,100179.41
2022-12-29T10:39:38.093Z,100198.56
2022-12-29T10:42:14.591Z,100224.63
2022-12-29T10:44:42.723Z,100201.25
2022-12-29T10:47:21.732Z,100212.50
2022-12-29T10:49:49.614Z,100221.34
2022-12-29T10:52:21.021Z,100227.25
2022-12-29T10:55:02.136Z,100222.97
2022-12-29T10:57:38.738Z,100234.13
2022-12-29T11:00:14.038Z,100221.03
2022-12-29T11:02:46.758Z,100218.31
2022-12-29T11:05:28.175Z,100221.72
2022-12-29T11:08:02.290Z,100246.19
2022-12-29T11:10:41.996Z,100230.53
2022-12-29T11:13:25.353Z,100234.00
2022-12-29T11:15:52.960Z,100236.66
2022-12-29T11:18:38.405Z,100241.03
2022-12-29T11:21:24.067Z,100247.03
2022-12-29T11:24:22.046Z,100243.66
2022-12-29T11:26:58.319Z,100259.25
2022-12-29T11:29:37.768Z,100250.41
2022-12-29T11:32:13.909Z,100271.38
2022-12-29T11:34:41.023Z,100271.19
2022-12-29T11:37:14.355Z,100255.50
2022-12-29T11:39:50.829Z,100257.19
2022-12-29T11:42:24.849Z,100264.25
2022-12-29T11:44:53.999Z,100260.78
2022-12-29T11:47:30.017Z,100286.09
2022-12-29T11:50:08.125Z,100271.19
2022-12-29T11:52:40.512Z,100271.25
2022-12-29T11:55:23.087Z,100273.00
2022-12-29T11:57:52.290Z,100281.78
2022-12-29T12:00:22.307Z,100281.72
2022-12-29T12:03:12.682Z,100291.22
2022-12-29T12:05:46.085Z,100294.72
2022-12-29T12:08:55.640Z,100293.03
2022-12-29T12:11:37.265Z,100288.69
2022-12-29T12:14:33.827Z,100287.84
2022-12-29T12:17:15.388Z,100281.84
2022-12-29T12:19:54.783Z,100290.47
2022-12-29T12:22:35.402Z,100305.38
2022-12-29T12:25:06.415Z,100290.59
2022-12-29T12:27:56.862Z,100302.00
2022-12-29T12:30:28.314Z,100279.34
2022-12-29T12:33:13.295Z,100313.28
2022-12-29T12:35:58.359Z,100309.72
2022-12-29T12:38:44.666Z,100314.13
2022-12-29T12:41:22.012Z,100313.34
2022-12-29T12:43:52.247Z,100311.50
2022-12-29T12:46:47.772Z,100312.28
2022-12-29T12:49:35.494Z,100327.22
2022-12-29T12:52:23.577Z,100325.59
2022-12-29T12:55:07.714Z,100315.16
2022-12-29T12:57:40.189Z,100323.06
2022-12-29T13:00:14.068Z,100316.91
2022-12-29T13:03:03.084Z,100330.75
2022-12-29T13:06:21.911Z,100365.47
2022-12-29T13:09:16.078Z,100341.25
2022-12-29T13:12:04.242Z,100323.72
2022-12-29T13:14:58.949Z,100327.19
2022-12-29T13:17:49.054Z,100334.25
2022-12-29T13:20:28.147Z,100342.16
2022-12-29T13:23:20.211Z,100370.09
2022-12-29T13:26:18.021Z,100351.84
2022-12-29T13:28:58.217Z,100351.00
2022-12-29T13:31:40.156Z,100346.69
2022-12-29T13:34:23.083Z,100360.63
2022-12-29T13:37:09.767Z,100346.75
2022-12-29T13:39:43.364Z,100362.44
2022-12-29T13:42:12.769Z,100362.50
2022-12-29T13:44:51.922Z,100360.75
2022-12-29T13:47:31.118Z,100359.09
2022-12-29T13:50:00.861Z,100366.13
2022-12-29T13:52:43.003Z,100371.41
2022-12-29T13:55:34.620Z,100361.16
2022-12-29T13:58:11.333Z,100370.81
2022-12-29T14:00:59.372Z,100380.41
2022-12-29T14:03:38.917Z,100357.66
2022-12-29T14:06:17.648Z,100371.59
2022-12-29T14:08:45.006Z,100376.88
2022-12-29T14:11:15.340Z,100379.75
2022-12-29T14:13:46.245Z,100374.56
2022-12-29T14:16:31.187Z,100379.69
2022-12-29T14:19:06.632Z,100377.22
2022-12-29T14:21:34.644Z,100378.97
2022-12-29T14:24:41.675Z,100392.00
2022-12-29T14:27:11.610Z,100380.63
2022-12-29T14:29:41.526Z,100379.78
2022-12-29T14:32:26.610Z,100397.97
2022-12-29T14:34:56.394Z,100389.97
2022-12-29T14:37:35.514Z,100392.59
2022-12-29T14:40:23.887Z,100389.09
2022-12-29T14:42:54.399Z,100387.25
2022-12-29T14:45:21.298Z,100388.28
2022-12-29T14:47:53.714Z,100385.63
2022-12-29T14:50:36.234Z,100403.00
2022-12-29T14:53:07.191Z,100385.56
2022-12-29T14:55:40.667Z,100392.66
2022-12-29T14:58:17.374Z,100397.88
2022-12-29T15:00:46.312Z,100396.16
2022-12-29T15:03:21.449Z,100403.00
2022-12-29T15:05:53.650Z,100401.34
2022-12-29T15:08:25.041Z,100411.78
2022-12-29T15:11:42.145Z,100417.88
2022-12-29T15:14:35.714Z,100408.41
2022-12-29T15:17:10.833Z,100405.84
2022-12-29T15:19:37.969Z,100418.91
2022-12-29T15:22:05.476Z,100426.72
2022-12-29T15:24:37.967Z,100418.09
2022-12-29T15:27:07.875Z,100417.41
2022-12-29T15:29:41.365Z,100421.03
2022-12-29T15:32:29.229Z,100417.66
2022-12-29T15:34:59.306Z,100416.84
2022-12-29T15:37:33.483Z,100417.66
2022-12-29T15:40:00.354Z,100409.84
2022-12-29T15:42:44.539Z,100424.63
2022-12-29T15:45:14.500Z,100435.06
2022-12-29T15:47:45.108Z,100435.06
2022-12-29T15:50:30.301Z,100438.63
2022-12-29T15:52:58.450Z,100442.06
2022-12-29T15:55:33.629Z,100451.63
2022-12-29T15:58:03.136Z,100449.91
2022-12-29T16:00:38.343Z,100455.94
2022-12-29T16:03:13.149Z,100459.50
2022-12-29T16:05:41.297Z,100461.22
2022-12-29T16:08:22.432Z,100463.81
2022-12-29T16:10:50.036Z,100473.53
2022-12-29T16:13:24.782Z,100467.50
2022-12-29T16:15:57.484Z,100476.28
2022-12-29T16:18:28.048Z,100467.69
2022-12-29T16:20:56.621Z,100464.25
2022-12-29T16:23:27.550Z,100468.53
2022-12-29T16:25:58.616Z,100472.06
2022-12-29T16:28:36.591Z,100468.56
2022-12-29T16:31:06.463Z,100465.94
2022-12-29T16:33:38.615Z,100472.91
2022-12-29T16:36:24.925Z,100475.59
2022-12-29T16:38:51.931Z,100466.94
2022-12-29T16:41:32.806Z,100465.22
2022-12-29T16:44:18.832Z,100470.47
2022-12-29T16:47:03.772Z,100465.22
2022-12-29T16:49:34.066Z,100466.06
2022-12-29T16:52:01.274Z,100489.50
2022-12-29T16:54:34.830Z,100553.84
2022-12-29T16:57:03.537Z,100542.22
2022-12-29T16:59:38.499Z,100542.44
2022-12-29T17:02:15.421Z,100555.69
2022-12-29T17:04:42.774Z,100554.91
2022-12-29T17:07:20.063Z,100559.31
2022-12-29T17:09:46.924Z,100570.56
2022-12-29T17:12:29.997Z,100594.78
2022-12-29T17:15:09.350Z,100575.75
2022-12-29T17:17:42.389Z,100571.44
2022-12-29T17:20:20.907Z,100578.34
2022-12-29T17:22:48.600Z,100593.09
2022-12-29T17:25:19.051Z,100589.59
2022-12-29T17:27:53.875Z,100563.63
2022-12-29T17:30:28.450Z,100571.41
2022-12-29T17:33:10.280Z,100572.31
2022-12-29T17:35:37.724Z,100580.94
2022-12-29T17:38:18.580Z,100581.81
2022-12-29T17:40:46.979Z,100601.75
2022-12-29T17:43:15.689Z,100606.94
2022-12-29T17:45:47.490Z,100610.38
2022-12-29T17:48:16.819Z,100592.22
2022-12-29T17:50:44.789Z,100581.81
2022-12-29T17:53:14.572Z,100580.94
2022-12-29T17:55:42.113Z,100580.94
2022-12-29T17:58:17.184Z,100580.94
2022-12-29T18:00:45.206Z,100586.13
2022-12-29T18:03:18.220Z,100593.09
2022-12-29T18:05:45.708Z,100589.59
2022-12-29T18:08:13.224Z,100586.16
2022-12-29T18:10:40.067Z,100595.69
2022-12-29T18:13:07.359Z,100579.22
2022-12-29T18:15:36.509Z,100596.53
2022-12-29T18:18:12.900Z,100610.38
2022-12-29T18:20:42.990Z,100619.06
2022-12-29T18:23:23.467Z,100600.00
2022-12-29T18:25:53.469Z,100603.47
2022-12-29T18:28:22.140Z,100615.56
2022-12-29T18:30:49.333Z,100619.91
2022-12-29T18:33:22.551Z,100621.63
2022-12-29T18:35:52.917Z,100622.50
2022-12-29T18:38:19.991Z,100623.38
2022-12-29T18:40:48.365Z,100630.31
2022-12-29T18:43:16.709Z,100617.31
2022-12-29T18:45:47.281Z,100622.50
2022-12-29T18:48:15.435Z,100620.78
2022-12-29T18:50:44.399Z,100625.13
2022-12-29T18:53:23.339Z,100620.78
2022-12-29T18:55:51.150Z,100622.50
2022-12-29T18:58:18.411Z,100629.44
2022-12-29T19:00:46.160Z,100633.78
2022-12-29T19:03:15.417Z,100644.16
2022-12-29T19:05:44.376Z,100637.22
2022-12-29T19:08:12.264Z,100638.97
2022-12-29T19:10:40.322Z,100638.09
2022-12-29T19:13:07.101Z,100645.91
2022-12-29T19:15:37.992Z,100634.66
2022-12-29T19:18:42.535Z,100636.41
2022-12-29T19:20:57.391Z,100636.34
2022-12-29T19:23:26.855Z,100635.50
2022-12-29T19:25:54.903Z,100639.84
2022-12-29T19:28:24.533Z,100639.00
2022-12-29T19:30:53.192Z,100657.16
2022-12-29T19:33:21.650Z,100653.69
2022-12-29T19:35:49.847Z,100659.78
2022-12-29T19:38:17.262Z,100665.84
2022-12-29T19:40:47.739Z,100655.44
2022-12-29T19:43:15.441Z,100662.34
2022-12-29T19:45:45.259Z,100665.81
2022-12-29T19:48:16.205Z,100671.03
2022-12-29T19:50:43.730Z,100679.66
2022-12-29T19:53:12.489Z,100671.00
2022-12-29T19:55:46.637Z,100677.09
2022-12-29T19:58:14.241Z,100688.38
2022-12-29T20:00:42.910Z,100691.81
2022-12-29T20:03:10.571Z,100696.13
2022-12-29T20:05:39.653Z,100693.56
2022-12-29T20:08:07.188Z,100689.22
2022-12-29T20:10:34.490Z,100709.16
2022-12-29T20:13:01.359Z,100698.72
2022-12-29T20:15:28.696Z,100703.94
2022-12-29T20:18:13.153Z,100690.06
2022-12-29T20:20:42.757Z,100707.41
2022-12-29T20:23:09.734Z,100707.38
2022-12-29T20:25:45.601Z,100715.19
2022-12-29T20:28:15.839Z,100716.03
2022-12-29T20:30:43.724Z,100724.69
2022-12-29T20:33:10.860Z,100729.03
2022-12-29T20:35:37.707Z,100729.88
2022-12-29T20:38:04.695Z,100724.72
2022-12-29T20:40:31.989Z,100722.97
2022-12-29T20:42:58.600Z,100724.72
2022-12-29T20:45:25.612Z,100717.78
2022-12-29T20:47:54.718Z,100745.47
2022-12-29T20:50:22.101Z,100744.63
2022-12-29T20:52:49.334Z,100737.69
2022-12-29T20:55:16.293Z,100742.88
2022-12-29T20:58:21.906Z,100756.75
2022-12-29T21:00:33.010Z,100749.84
2022-12-29T21:03:00.122Z,100760.25
2022-12-29T21:05:28.758Z,100754.13
2022-12-29T21:07:56.573Z,100748.06
2022-12-29T21:10:24.945Z,100745.47
2022-12-29T21:12:52.137Z,100735.97
2022-12-29T21:15:19.103Z,100757.56
2022-12-29T21:17:46.473Z,100752.38
2022-12-29T21:20:19.969Z,100765.38
2022-12-29T21:22:48.336Z,100766.25
2022-12-29T21:25:15.781Z,100761.03
2022-12-29T21:27:45.203Z,100754.97
2022-12-29T21:30:13.314Z,100753.22
2022-12-29T21:32:41.500Z,100754.13
2022-12-29T21:35:09.703Z,100755.81
2022-12-29T21:37:37.344Z,100757.56
2022-12-29T21:40:04.646Z,100757.56
2022-12-29T21:42:32.367Z,100773.16
2022-12-29T21:45:20.820Z,100763.63
2022-12-29T21:48:07.881Z,100769.69
2022-12-29T21:50:58.129Z,100764.50
2022-12-29T21:53:38.011Z,100770.53
2022-12-29T21:56:12.966Z,100762.72
2022-12-29T21:59:01.202Z,100756.69
2022-12-29T22:01:48.667Z,100763.56
2022-12-29T22:04:38.657Z,100766.19
2022-12-29T22:07:26.618Z,100774.81
2022-12-29T22:10:12.961Z,100773.16
2022-12-29T22:13:03.171Z,100773.97
2022-12-29T22:15:33.487Z,100781.72
2022-12-29T22:18:01.473Z,100780.00
2022-12-29T22:20:31.090Z,100780.00
2022-12-29T22:22:58.975Z,100778.25
2022-12-29T22:25:26.135Z,100778.25
2022-12-29T22:27:58.545Z,100793.88
2022-12-29T22:30:27.558Z,100800.78
2022-12-29T22:32:56.747Z,100799.06
2022-12-29T22:35:24.898Z,100800.72
2022-12-29T22:37:51.925Z,100802.50
2022-12-29T22:40:19.627Z,100805.97
2022-12-29T22:42:47.344Z,100811.16
2022-12-29T22:45:15.300Z,100805.09
2022-12-29T22:47:42.130Z,100811.16
2022-12-29T22:50:09.621Z,100814.66
2022-12-29T22:52:36.808Z,100817.19
2022-12-29T22:55:07.168Z,100821.59
2022-12-29T22:57:35.264Z,100835.47
2022-12-29T23:00:04.220Z,100833.72
2022-12-29T23:02:31.466Z,100841.47
2022-12-29T23:05:03.453Z,100837.13
2022-12-29T23:07:31.569Z,100864.88
2022-12-29T23:09:58.272Z,100839.75
2022-12-29T23:12:30.303Z,100845.84
2022-12-29T23:14:58.001Z,100854.44
2022-12-29T23:17:25.379Z,100858.78
2022-12-29T23:19:52.964Z,100869.16
2022-12-29T23:22:20.584Z,100876.97
2022-12-29T23:24:47.287Z,100887.34
2022-12-29T23:27:14.525Z,100894.22
2022-12-29T23:29:41.661Z,100896.88
2022-12-29T23:32:09.269Z,100901.19
2022-12-29T23:34:36.820Z,100909.84
2022-12-29T23:37:05.029Z,100904.69
2022-12-29T23:39:32.179Z,100909.88
2022-12-29T23:41:59.369Z,100909.84
2022-12-29T23:44:26.070Z,100915.03
2022-12-29T23:46:53.311Z,100916.75
2022-12-29T23:49:20.650Z,100917.59
2022-12-29T23:51:48.210Z,100929.72
2022-12-29T23:54:16.041Z,100931.47
2022-12-29T23:56:43.369Z,100928.91
2022-12-29T23:59:10.072Z,100938.38
